»·PEaware :: N4657 KSAN-KHHR

N4657 :: KSAN-KHHR

FLIGHT INFORMATION

Flight Status: Arrived
Operator: Privately registered:
United States
More flights under this callsign
Pilot: Daniel P. (20187)
Aircraft: PILATUS PC-12 EAGLE
(PC12)
More flights by this aircraft type
Origin: KSAN San Diego Intl-Lindbergh
United States
Destination: KHHR Northrop/Hawthorne Mun
United States
More flights between these airports :: More routes between these airports
Route: +CWARD2 SLI SLI340 WELLZ HHR 25 LOC
File this flight plan on PilotEdge
Remarks: TEC route SANP8R
Altitude:
(Current/Filed)
8,000ft
Speed:
(Current/Filed)
200kts
Departed: 05-Oct-18 11:21 AM
Arrived: 05-Oct-18 11:53 AM
Distance/Time
Traveled:
92nm/0:32
Distance/Time
To Go:
Arrived

Flight Plot

Page will automatically refresh every two minutes.

Flight plan parsing failed; only flown route is shown


Map Options




Map Legend


Flown Route
Filed Route
Departure Airport
Arrival Airport
Navaid (VOR, NDB)
Fix

Horizontal Profiles

Position Reports

Time Latitude Longitude Heading Altitude Ground
Speed
05-Oct-18 10:57 32.734272 -117.185249 196 17ft 0kts
05-Oct-18 10:58 32.734272 -117.185249 196 17ft 0kts
05-Oct-18 10:59 32.734272 -117.185249 196 17ft 0kts
05-Oct-18 11:00 32.734272 -117.185249 196 17ft 0kts
05-Oct-18 11:01 32.734271 -117.185249 196 17ft 0kts
05-Oct-18 11:02 32.734271 -117.185249 196 17ft 0kts
05-Oct-18 11:03 32.734271 -117.185249 196 17ft 0kts
05-Oct-18 11:04 32.734271 -117.185249 196 17ft 0kts
05-Oct-18 11:05 32.734271 -117.185249 196 17ft 0kts
05-Oct-18 11:06 32.734271 -117.185249 196 17ft 0kts
05-Oct-18 11:07 32.734271 -117.185249 196 17ft 0kts
05-Oct-18 11:08 32.734271 -117.185249 196 17ft 0kts
05-Oct-18 11:09 32.734271 -117.185249 196 17ft 0kts
05-Oct-18 11:10 32.734271 -117.185249 196 17ft 0kts
05-Oct-18 11:11 32.734271 -117.185249 196 17ft 0kts
05-Oct-18 11:12 32.734271 -117.185249 196 17ft 0kts
05-Oct-18 11:13 32.734271 -117.185249 196 17ft 0kts
05-Oct-18 11:14 32.734271 -117.185249 196 17ft 0kts
05-Oct-18 11:15 32.734271 -117.185249 196 17ft 0kts
05-Oct-18 11:16 32.734271 -117.185249 196 17ft 0kts
05-Oct-18 11:17 32.734271 -117.185249 196 17ft 0kts
05-Oct-18 11:18 32.733848 -117.185214 147 17ft 9kts
05-Oct-18 11:19 32.732507 -117.180486 104 18ft 10kts
05-Oct-18 11:20 32.731308 -117.176426 109 20ft 9kts
05-Oct-18 11:21 32.730976 -117.175531 138 21ft 0kts
05-Oct-18 11:22 32.730976 -117.175531 138 21ft 0kts
05-Oct-18 11:23 32.731013 -117.179189 284 17ft 80kts
05-Oct-18 11:24 32.744809 -117.215310 299 1659ft 145kts
05-Oct-18 11:25 32.767971 -117.259140 299 3579ft 173kts
05-Oct-18 11:26 32.794217 -117.309276 300 5378ft 184kts
05-Oct-18 11:27 32.824799 -117.357967 307 7159ft 186kts
05-Oct-18 11:28 32.857523 -117.408617 307 7990ft 219kts
05-Oct-18 11:29 32.896449 -117.468985 307 7978ft 237kts
05-Oct-18 11:30 32.936250 -117.530898 307 7972ft 237kts
05-Oct-18 11:31 32.976179 -117.593169 307 7970ft 237kts
05-Oct-18 11:32 33.014213 -117.652548 307 7971ft 238kts
05-Oct-18 11:33 33.054216 -117.715303 307 7972ft 239kts
05-Oct-18 11:34 33.102395 -117.769243 319 7973ft 240kts
05-Oct-18 11:35 33.150589 -117.818181 318 7974ft 228kts
05-Oct-18 11:36 33.199909 -117.863772 342 7977ft 229kts
05-Oct-18 11:37 33.262226 -117.879363 345 8005ft 229kts
05-Oct-18 11:38 33.324495 -117.894870 348 8010ft 232kts
05-Oct-18 11:39 33.384972 -117.916825 338 8007ft 229kts
05-Oct-18 11:40 33.440006 -117.936408 341 7635ft 208kts
05-Oct-18 11:41 33.495262 -117.955516 341 6836ft 210kts
05-Oct-18 11:42 33.550269 -117.974431 341 6045ft 209kts
05-Oct-18 11:43 33.604697 -117.993074 341 5226ft 201kts
05-Oct-18 11:44 33.658010 -118.011779 343 4426ft 212kts
05-Oct-18 11:45 33.712971 -118.030560 344 3975ft 213kts
05-Oct-18 11:46 33.762519 -118.047716 344 3974ft 193kts
05-Oct-18 11:47 33.814736 -118.058258 356 3828ft 198kts
05-Oct-18 11:48 33.869183 -118.063909 356 3356ft 206kts
05-Oct-18 11:49 33.923882 -118.072434 324 2861ft 188kts
05-Oct-18 11:50 33.932263 -118.125725 266 2506ft 171kts
05-Oct-18 11:51 33.929838 -118.181121 266 2027ft 173kts
05-Oct-18 11:52 33.927395 -118.235352 266 1582ft 152kts
05-Oct-18 11:53 33.925452 -118.278646 267 915ft 98kts
05-Oct-18 11:54 33.923823 -118.311547 266 378ft 98kts
05-Oct-18 11:55 33.922771 -118.336567 267 60ft 20kts
05-Oct-18 11:56 33.923007 -118.337566 0 61ft 0kts
05-Oct-18 11:57 33.923434 -118.338201 4 62ft 0kts
05-Oct-18 11:58 33.923433 -118.338201 4 62ft 0kts

Navigation Log

Ident Type
Flight plan parsing failed, navigation log unavailable